KSIK/SIK METAR and TAF weather

Enter ICAO airport designator
Station Type Date Time Source
KSIK METAR 2021/07/31 00:35 UTC NOAA

KSIK 310035Z AUTO 00000KT 10SM SCT075 30/25 A3001 RMK AO2 TSNO


Station Type Date Time Source
KSIK Decoded METAR 2021/07/31 00:35 UTC NOAA

Station name not available
Jul 30, 2021 - 08:35 PM EDT / 2021.07.31 0035 UTC
Wind: Calm:0
Visibility: 10 mile(s):0
Sky conditions: partly cloudy
Temperature: 86 F (30 C)
Heat index: 96.8 F (36.0 C):1
Dew Point: 77 F (25 C)
Relative Humidity: 74%
Pressure (altimeter): 30.01 in. Hg (1016 hPa)
ob: KSIK 310035Z AUTO 00000KT 10SM SCT075 30/25 A3001 RMK AO2 TSNO
cycle: 0

Station Type Date Time Source
KSIK TAF UTC NOAA

Error!

Example: see airport list